sensor_id;sensor_type;location;lat;lon;timestamp;temperature;humidity
20568;DHT22;10442;49.932;11.592;2023-05-10T00:02:22;17.40;47.20
20568;DHT22;10442;49.932;11.592;2023-05-10T00:04:50;17.40;47.10
20568;DHT22;10442;49.932;11.592;2023-05-10T00:07:17;17.40;47.20
20568;DHT22;10442;49.932;11.592;2023-05-10T00:09:45;17.30;47.10
20568;DHT22;10442;49.932;11.592;2023-05-10T00:12:12;17.30;47.30
20568;DHT22;10442;49.932;11.592;2023-05-10T00:14:39;17.30;47.30
20568;DHT22;10442;49.932;11.592;2023-05-10T00:17:07;17.20;47.30
20568;DHT22;10442;49.932;11.592;2023-05-10T00:19:34;17.20;47.50
20568;DHT22;10442;49.932;11.592;2023-05-10T00:22:02;17.20;47.50
20568;DHT22;10442;49.932;11.592;2023-05-10T00:24:30;17.10;47.60
20568;DHT22;10442;49.932;11.592;2023-05-10T00:26:57;17.10;47.70
20568;DHT22;10442;49.932;11.592;2023-05-10T00:29:24;17.00;47.70
20568;DHT22;10442;49.932;11.592;2023-05-10T00:31:51;17.10;48.00
20568;DHT22;10442;49.932;11.592;2023-05-10T00:34:18;17.00;48.00
20568;DHT22;10442;49.932;11.592;2023-05-10T00:36:46;17.00;48.10
20568;DHT22;10442;49.932;11.592;2023-05-10T00:39:13;16.90;48.20
20568;DHT22;10442;49.932;11.592;2023-05-10T00:41:40;16.90;48.10
20568;DHT22;10442;49.932;11.592;2023-05-10T00:44:08;16.90;48.20
20568;DHT22;10442;49.932;11.592;2023-05-10T00:46:36;16.90;48.20
20568;DHT22;10442;49.932;11.592;2023-05-10T00:49:03;16.90;48.30
20568;DHT22;10442;49.932;11.592;2023-05-10T00:51:31;16.90;48.40
20568;DHT22;10442;49.932;11.592;2023-05-10T00:53:59;16.90;48.40
20568;DHT22;10442;49.932;11.592;2023-05-10T00:56:26;16.90;48.60
20568;DHT22;10442;49.932;11.592;2023-05-10T00:58:55;16.80;48.50
20568;DHT22;10442;49.932;11.592;2023-05-10T01:01:23;16.80;48.60
20568;DHT22;10442;49.932;11.592;2023-05-10T01:03:51;16.80;48.60
20568;DHT22;10442;49.932;11.592;2023-05-10T01:06:19;16.70;48.60
20568;DHT22;10442;49.932;11.592;2023-05-10T01:08:46;16.70;48.80
20568;DHT22;10442;49.932;11.592;2023-05-10T01:11:14;16.70;48.80
20568;DHT22;10442;49.932;11.592;2023-05-10T01:13:43;16.70;49.00
20568;DHT22;10442;49.932;11.592;2023-05-10T01:16:14;16.60;48.90
20568;DHT22;10442;49.932;11.592;2023-05-10T01:18:42;16.60;49.10
20568;DHT22;10442;49.932;11.592;2023-05-10T01:21:29;16.60;49.20
20568;DHT22;10442;49.932;11.592;2023-05-10T01:26:37;16.60;49.30
20568;DHT22;10442;49.932;11.592;2023-05-10T01:34:35;16.60;49.60
20568;DHT22;10442;49.932;11.592;2023-05-10T01:37:13;16.60;49.70
20568;DHT22;10442;49.932;11.592;2023-05-10T01:42:26;16.60;49.70
20568;DHT22;10442;49.932;11.592;2023-05-10T01:45:07;16.60;49.90
20568;DHT22;10442;49.932;11.592;2023-05-10T01:47:46;16.60;50.00
20568;DHT22;10442;49.932;11.592;2023-05-10T01:50:19;16.60;49.90
20568;DHT22;10442;49.932;11.592;2023-05-10T01:52:55;16.60;49.90
20568;DHT22;10442;49.932;11.592;2023-05-10T01:55:26;16.60;50.50
20568;DHT22;10442;49.932;11.592;2023-05-10T01:58:11;16.60;49.90
20568;DHT22;10442;49.932;11.592;2023-05-10T02:00:43;16.70;49.90
20568;DHT22;10442;49.932;11.592;2023-05-10T02:03:13;16.70;49.90
20568;DHT22;10442;49.932;11.592;2023-05-10T02:05:43;16.70;49.80
20568;DHT22;10442;49.932;11.592;2023-05-10T02:08:13;16.70;49.80
20568;DHT22;10442;49.932;11.592;2023-05-10T02:10:43;16.70;49.80
20568;DHT22;10442;49.932;11.592;2023-05-10T02:13:12;16.70;49.80
20568;DHT22;10442;49.932;11.592;2023-05-10T02:15:41;16.70;49.90
20568;DHT22;10442;49.932;11.592;2023-05-10T02:18:12;16.70;49.80
20568;DHT22;10442;49.932;11.592;2023-05-10T02:20:41;16.70;49.80
20568;DHT22;10442;49.932;11.592;2023-05-10T02:23:11;16.70;49.80
20568;DHT22;10442;49.932;11.592;2023-05-10T02:25:39;16.80;50.00
20568;DHT22;10442;49.932;11.592;2023-05-10T02:28:07;16.80;50.00
20568;DHT22;10442;49.932;11.592;2023-05-10T02:30:36;16.70;49.90
20568;DHT22;10442;49.932;11.592;2023-05-10T02:33:04;16.80;50.00
20568;DHT22;10442;49.932;11.592;2023-05-10T02:35:33;16.80;50.00
20568;DHT22;10442;49.932;11.592;2023-05-10T02:38:02;16.70;50.00
20568;DHT22;10442;49.932;11.592;2023-05-10T02:40:30;16.80;50.20
20568;DHT22;10442;49.932;11.592;2023-05-10T02:42:59;16.80;50.30
20568;DHT22;10442;49.932;11.592;2023-05-10T02:45:28;16.80;50.30
20568;DHT22;10442;49.932;11.592;2023-05-10T02:47:58;16.80;50.50
20568;DHT22;10442;49.932;11.592;2023-05-10T02:50:30;16.70;50.40
20568;DHT22;10442;49.932;11.592;2023-05-10T02:53:11;16.70;50.50
20568;DHT22;10442;49.932;11.592;2023-05-10T02:55:42;16.70;50.50
20568;DHT22;10442;49.932;11.592;2023-05-10T02:58:12;16.70;50.50
20568;DHT22;10442;49.932;11.592;2023-05-10T03:00:39;16.70;50.40
20568;DHT22;10442;49.932;11.592;2023-05-10T03:03:07;16.70;50.50
20568;DHT22;10442;49.932;11.592;2023-05-10T03:05:35;16.70;50.50
20568;DHT22;10442;49.932;11.592;2023-05-10T03:08:04;16.70;50.60
20568;DHT22;10442;49.932;11.592;2023-05-10T03:10:33;16.70;50.50
20568;DHT22;10442;49.932;11.592;2023-05-10T03:13:16;16.70;50.70
20568;DHT22;10442;49.932;11.592;2023-05-10T03:15:58;16.70;50.80
20568;DHT22;10442;49.932;11.592;2023-05-10T03:18:58;16.70;50.80
20568;DHT22;10442;49.932;11.592;2023-05-10T03:21:29;16.70;50.90
20568;DHT22;10442;49.932;11.592;2023-05-10T03:24:06;16.70;50.90
20568;DHT22;10442;49.932;11.592;2023-05-10T03:26:37;16.70;51.10
20568;DHT22;10442;49.932;11.592;2023-05-10T03:29:12;16.70;51.00
20568;DHT22;10442;49.932;11.592;2023-05-10T03:31:40;16.70;51.10
20568;DHT22;10442;49.932;11.592;2023-05-10T03:34:07;16.70;51.10
20568;DHT22;10442;49.932;11.592;2023-05-10T03:36:35;16.60;51.20
20568;DHT22;10442;49.932;11.592;2023-05-10T03:39:03;16.60;51.50
20568;DHT22;10442;49.932;11.592;2023-05-10T03:41:30;16.60;52.20
20568;DHT22;10442;49.932;11.592;2023-05-10T03:43:58;16.50;52.00
20568;DHT22;10442;49.932;11.592;2023-05-10T03:46:25;16.50;52.20
20568;DHT22;10442;49.932;11.592;2023-05-10T03:48:53;16.50;52.30
20568;DHT22;10442;49.932;11.592;2023-05-10T03:51:21;16.50;52.40
20568;DHT22;10442;49.932;11.592;2023-05-10T03:53:49;16.50;52.50
20568;DHT22;10442;49.932;11.592;2023-05-10T03:56:17;16.50;52.80
20568;DHT22;10442;49.932;11.592;2023-05-10T03:58:46;16.50;53.00
20568;DHT22;10442;49.932;11.592;2023-05-10T04:01:13;16.40;52.90
20568;DHT22;10442;49.932;11.592;2023-05-10T04:03:40;16.40;53.00
20568;DHT22;10442;49.932;11.592;2023-05-10T04:06:08;16.40;53.00
20568;DHT22;10442;49.932;11.592;2023-05-10T04:08:38;16.40;53.00
20568;DHT22;10442;49.932;11.592;2023-05-10T04:11:10;16.50;53.40
20568;DHT22;10442;49.932;11.592;2023-05-10T04:13:38;16.50;53.70
20568;DHT22;10442;49.932;11.592;2023-05-10T04:16:05;16.50;53.50
20568;DHT22;10442;49.932;11.592;2023-05-10T04:18:33;16.50;53.90
20568;DHT22;10442;49.932;11.592;2023-05-10T04:21:00;16.50;54.00
20568;DHT22;10442;49.932;11.592;2023-05-10T04:23:28;16.40;53.90
20568;DHT22;10442;49.932;11.592;2023-05-10T04:26:02;16.40;54.50
20568;DHT22;10442;49.932;11.592;2023-05-10T04:28:29;16.50;54.80
20568;DHT22;10442;49.932;11.592;2023-05-10T04:31:07;16.40;54.90
20568;DHT22;10442;49.932;11.592;2023-05-10T04:33:35;16.40;55.80
20568;DHT22;10442;49.932;11.592;2023-05-10T04:36:03;16.40;56.20
20568;DHT22;10442;49.932;11.592;2023-05-10T04:38:31;16.30;56.30
20568;DHT22;10442;49.932;11.592;2023-05-10T04:41:09;16.30;56.10
20568;DHT22;10442;49.932;11.592;2023-05-10T04:43:37;16.20;56.90
20568;DHT22;10442;49.932;11.592;2023-05-10T04:46:06;16.20;57.00
20568;DHT22;10442;49.932;11.592;2023-05-10T04:48:34;16.20;57.30
20568;DHT22;10442;49.932;11.592;2023-05-10T04:51:02;16.10;57.50
20568;DHT22;10442;49.932;11.592;2023-05-10T04:53:31;16.10;57.90
20568;DHT22;10442;49.932;11.592;2023-05-10T04:55:58;16.10;58.00
20568;DHT22;10442;49.932;11.592;2023-05-10T04:58:26;16.10;58.40
20568;DHT22;10442;49.932;11.592;2023-05-10T05:00:53;16.10;58.70
20568;DHT22;10442;49.932;11.592;2023-05-10T05:03:20;16.00;58.20
20568;DHT22;10442;49.932;11.592;2023-05-10T05:05:49;16.10;58.80
20568;DHT22;10442;49.932;11.592;2023-05-10T05:08:16;16.00;59.70
20568;DHT22;10442;49.932;11.592;2023-05-10T05:10:43;15.90;60.10
20568;DHT22;10442;49.932;11.592;2023-05-10T05:13:12;15.90;60.70
20568;DHT22;10442;49.932;11.592;2023-05-10T05:15:40;15.80;60.90
20568;DHT22;10442;49.932;11.592;2023-05-10T05:18:08;15.80;61.40
20568;DHT22;10442;49.932;11.592;2023-05-10T05:20:35;15.70;61.60
20568;DHT22;10442;49.932;11.592;2023-05-10T05:23:02;15.60;61.60
20568;DHT22;10442;49.932;11.592;2023-05-10T05:25:30;15.60;62.10
20568;DHT22;10442;49.932;11.592;2023-05-10T05:27:57;15.50;62.50
20568;DHT22;10442;49.932;11.592;2023-05-10T05:30:24;15.50;62.50
20568;DHT22;10442;49.932;11.592;2023-05-10T05:32:52;15.40;62.60
20568;DHT22;10442;49.932;11.592;2023-05-10T05:35:19;15.40;63.30
20568;DHT22;10442;49.932;11.592;2023-05-10T05:37:46;15.30;63.80
20568;DHT22;10442;49.932;11.592;2023-05-10T05:40:14;15.30;63.80
20568;DHT22;10442;49.932;11.592;2023-05-10T05:42:41;15.30;64.50
20568;DHT22;10442;49.932;11.592;2023-05-10T05:45:09;15.20;64.70
20568;DHT22;10442;49.932;11.592;2023-05-10T05:47:40;15.20;65.20
20568;DHT22;10442;49.932;11.592;2023-05-10T05:50:08;15.10;65.70
20568;DHT22;10442;49.932;11.592;2023-05-10T05:52:36;15.10;66.40
20568;DHT22;10442;49.932;11.592;2023-05-10T05:55:04;15.10;66.00
20568;DHT22;10442;49.932;11.592;2023-05-10T05:57:32;15.00;66.30
20568;DHT22;10442;49.932;11.592;2023-05-10T05:59:59;15.00;66.10
20568;DHT22;10442;49.932;11.592;2023-05-10T06:02:27;15.00;67.10
20568;DHT22;10442;49.932;11.592;2023-05-10T06:04:54;14.90;67.50
20568;DHT22;10442;49.932;11.592;2023-05-10T06:07:22;14.90;67.20
20568;DHT22;10442;49.932;11.592;2023-05-10T06:09:49;14.90;67.80
20568;DHT22;10442;49.932;11.592;2023-05-10T06:12:17;14.90;67.60
20568;DHT22;10442;49.932;11.592;2023-05-10T06:14:44;14.90;68.50
20568;DHT22;10442;49.932;11.592;2023-05-10T06:17:12;14.90;70.00
20568;DHT22;10442;49.932;11.592;2023-05-10T06:19:39;14.90;68.60
20568;DHT22;10442;49.932;11.592;2023-05-10T06:22:07;15.00;68.70
20568;DHT22;10442;49.932;11.592;2023-05-10T06:24:34;15.10;68.90
20568;DHT22;10442;49.932;11.592;2023-05-10T06:27:02;15.10;68.80
20568;DHT22;10442;49.932;11.592;2023-05-10T06:29:31;15.20;69.00
20568;DHT22;10442;49.932;11.592;2023-05-10T06:31:59;15.30;69.10
20568;DHT22;10442;49.932;11.592;2023-05-10T06:34:26;15.40;68.80
20568;DHT22;10442;49.932;11.592;2023-05-10T06:36:54;15.40;69.00
20568;DHT22;10442;49.932;11.592;2023-05-10T06:39:22;15.50;69.10
20568;DHT22;10442;49.932;11.592;2023-05-10T06:41:49;15.50;69.60
20568;DHT22;10442;49.932;11.592;2023-05-10T06:44:19;15.60;69.90
20568;DHT22;10442;49.932;11.592;2023-05-10T06:46:46;15.60;69.80
20568;DHT22;10442;49.932;11.592;2023-05-10T06:49:14;15.70;69.20
20568;DHT22;10442;49.932;11.592;2023-05-10T06:51:41;15.80;69.10
20568;DHT22;10442;49.932;11.592;2023-05-10T06:54:08;15.80;69.40
20568;DHT22;10442;49.932;11.592;2023-05-10T06:56:36;15.80;69.60
20568;DHT22;10442;49.932;11.592;2023-05-10T06:59:03;15.80;69.60
20568;DHT22;10442;49.932;11.592;2023-05-10T07:01:31;15.90;69.50
20568;DHT22;10442;49.932;11.592;2023-05-10T07:03:59;15.90;69.70
20568;DHT22;10442;49.932;11.592;2023-05-10T07:06:27;15.90;69.50
20568;DHT22;10442;49.932;11.592;2023-05-10T07:09:00;15.90;69.50
20568;DHT22;10442;49.932;11.592;2023-05-10T07:11:28;15.90;69.50
20568;DHT22;10442;49.932;11.592;2023-05-10T07:13:55;15.90;69.80
20568;DHT22;10442;49.932;11.592;2023-05-10T07:16:23;16.00;70.30
20568;DHT22;10442;49.932;11.592;2023-05-10T07:18:51;16.00;70.80
20568;DHT22;10442;49.932;11.592;2023-05-10T07:21:20;16.10;70.30
20568;DHT22;10442;49.932;11.592;2023-05-10T07:23:48;16.20;70.90
20568;DHT22;10442;49.932;11.592;2023-05-10T07:26:15;16.30;71.60
20568;DHT22;10442;49.932;11.592;2023-05-10T07:28:43;16.40;71.60
20568;DHT22;10442;49.932;11.592;2023-05-10T07:31:10;16.60;71.10
20568;DHT22;10442;49.932;11.592;2023-05-10T07:33:38;16.80;70.60
20568;DHT22;10442;49.932;11.592;2023-05-10T07:36:06;16.90;70.10
20568;DHT22;10442;49.932;11.592;2023-05-10T07:38:33;17.00;69.90
20568;DHT22;10442;49.932;11.592;2023-05-10T07:41:01;17.10;69.60
20568;DHT22;10442;49.932;11.592;2023-05-10T07:43:28;17.20;69.50
20568;DHT22;10442;49.932;11.592;2023-05-10T07:45:56;17.30;69.30
20568;DHT22;10442;49.932;11.592;2023-05-10T07:48:25;17.30;68.90
20568;DHT22;10442;49.932;11.592;2023-05-10T07:50:53;17.40;69.00
20568;DHT22;10442;49.932;11.592;2023-05-10T07:53:20;17.40;69.60
20568;DHT22;10442;49.932;11.592;2023-05-10T07:55:51;17.50;69.50
20568;DHT22;10442;49.932;11.592;2023-05-10T07:58:18;17.50;69.70
20568;DHT22;10442;49.932;11.592;2023-05-10T08:00:46;17.50;69.50
20568;DHT22;10442;49.932;11.592;2023-05-10T08:03:13;17.60;69.50
20568;DHT22;10442;49.932;11.592;2023-05-10T08:05:42;17.60;69.40
20568;DHT22;10442;49.932;11.592;2023-05-10T08:08:09;17.60;69.20
20568;DHT22;10442;49.932;11.592;2023-05-10T08:10:36;17.60;69.30
20568;DHT22;10442;49.932;11.592;2023-05-10T08:13:04;17.70;69.60
20568;DHT22;10442;49.932;11.592;2023-05-10T08:15:31;17.80;70.00
20568;DHT22;10442;49.932;11.592;2023-05-10T08:17:59;17.80;69.80
20568;DHT22;10442;49.932;11.592;2023-05-10T08:20:26;17.90;69.00
20568;DHT22;10442;49.932;11.592;2023-05-10T08:22:53;17.90;68.40
20568;DHT22;10442;49.932;11.592;2023-05-10T08:25:21;18.00;68.40
20568;DHT22;10442;49.932;11.592;2023-05-10T08:27:48;18.10;68.40
20568;DHT22;10442;49.932;11.592;2023-05-10T08:30:16;18.20;68.10
20568;DHT22;10442;49.932;11.592;2023-05-10T08:32:43;18.30;68.00
20568;DHT22;10442;49.932;11.592;2023-05-10T08:35:11;18.30;67.80
20568;DHT22;10442;49.932;11.592;2023-05-10T08:37:38;18.30;67.80
20568;DHT22;10442;49.932;11.592;2023-05-10T08:40:06;18.30;68.20
20568;DHT22;10442;49.932;11.592;2023-05-10T08:42:36;18.30;68.30
20568;DHT22;10442;49.932;11.592;2023-05-10T08:45:07;18.30;68.60
20568;DHT22;10442;49.932;11.592;2023-05-10T08:47:36;18.30;68.70
20568;DHT22;10442;49.932;11.592;2023-05-10T08:50:06;18.30;68.80
20568;DHT22;10442;49.932;11.592;2023-05-10T08:52:36;18.30;69.00
20568;DHT22;10442;49.932;11.592;2023-05-10T08:55:06;18.30;69.10
20568;DHT22;10442;49.932;11.592;2023-05-10T08:57:35;18.30;70.20
20568;DHT22;10442;49.932;11.592;2023-05-10T09:00:04;18.40;69.30
20568;DHT22;10442;49.932;11.592;2023-05-10T09:02:33;18.40;69.50
20568;DHT22;10442;49.932;11.592;2023-05-10T09:05:00;18.50;69.70
20568;DHT22;10442;49.932;11.592;2023-05-10T09:07:28;18.70;70.70
20568;DHT22;10442;49.932;11.592;2023-05-10T09:09:56;18.80;68.70
20568;DHT22;10442;49.932;11.592;2023-05-10T09:12:24;19.10;68.10
20568;DHT22;10442;49.932;11.592;2023-05-10T09:14:52;19.20;68.00
20568;DHT22;10442;49.932;11.592;2023-05-10T09:17:22;19.40;67.60
20568;DHT22;10442;49.932;11.592;2023-05-10T09:19:57;19.40;66.30
20568;DHT22;10442;49.932;11.592;2023-05-10T09:22:25;19.40;66.40
20568;DHT22;10442;49.932;11.592;2023-05-10T09:25:09;19.40;65.80
20568;DHT22;10442;49.932;11.592;2023-05-10T09:27:39;19.20;65.90
20568;DHT22;10442;49.932;11.592;2023-05-10T09:30:08;19.20;66.10
20568;DHT22;10442;49.932;11.592;2023-05-10T09:35:12;19.10;67.00
20568;DHT22;10442;49.932;11.592;2023-05-10T09:37:44;19.10;67.10
20568;DHT22;10442;49.932;11.592;2023-05-10T09:40:14;19.10;67.10
20568;DHT22;10442;49.932;11.592;2023-05-10T09:42:50;19.20;67.50
20568;DHT22;10442;49.932;11.592;2023-05-10T09:45:18;19.40;67.80
20568;DHT22;10442;49.932;11.592;2023-05-10T09:47:46;19.60;66.70
20568;DHT22;10442;49.932;11.592;2023-05-10T09:50:13;19.90;66.90
20568;DHT22;10442;49.932;11.592;2023-05-10T09:52:51;20.10;65.40
20568;DHT22;10442;49.932;11.592;2023-05-10T09:55:22;20.30;64.20
20568;DHT22;10442;49.932;11.592;2023-05-10T09:57:58;20.40;62.70
20568;DHT22;10442;49.932;11.592;2023-05-10T10:00:26;20.50;62.40
20568;DHT22;10442;49.932;11.592;2023-05-10T10:02:59;20.60;62.50
20568;DHT22;10442;49.932;11.592;2023-05-10T10:05:34;20.50;62.00
20568;DHT22;10442;49.932;11.592;2023-05-10T10:08:03;20.50;62.40
20568;DHT22;10442;49.932;11.592;2023-05-10T10:10:32;20.50;61.20
20568;DHT22;10442;49.932;11.592;2023-05-10T10:13:00;20.50;61.30
20568;DHT22;10442;49.932;11.592;2023-05-10T10:15:28;20.50;61.30
20568;DHT22;10442;49.932;11.592;2023-05-10T10:17:55;20.60;61.80
20568;DHT22;10442;49.932;11.592;2023-05-10T10:20:23;20.70;61.30
20568;DHT22;10442;49.932;11.592;2023-05-10T10:22:53;20.80;60.20
20568;DHT22;10442;49.932;11.592;2023-05-10T10:25:21;21.00;60.20
20568;DHT22;10442;49.932;11.592;2023-05-10T10:30:37;21.30;59.90
20568;DHT22;10442;49.932;11.592;2023-05-10T10:36:02;21.40;59.60
20568;DHT22;10442;49.932;11.592;2023-05-10T10:47:05;21.00;59.80
20568;DHT22;10442;49.932;11.592;2023-05-10T10:54:57;20.80;59.90
20568;DHT22;10442;49.932;11.592;2023-05-10T10:57:25;20.90;60.30
20568;DHT22;10442;49.932;11.592;2023-05-10T11:08:29;21.50;57.50
20568;DHT22;10442;49.932;11.592;2023-05-10T11:13:28;21.90;57.30
20568;DHT22;10442;49.932;11.592;2023-05-10T11:15:57;22.00;56.40
20568;DHT22;10442;49.932;11.592;2023-05-10T11:18:26;22.20;56.40
20568;DHT22;10442;49.932;11.592;2023-05-10T11:21:00;22.40;56.10
20568;DHT22;10442;49.932;11.592;2023-05-10T11:26:14;22.60;54.00
20568;DHT22;10442;49.932;11.592;2023-05-10T11:28:46;22.60;54.60
20568;DHT22;10442;49.932;11.592;2023-05-10T11:31:19;22.50;54.40
20568;DHT22;10442;49.932;11.592;2023-05-10T11:33:52;22.40;55.20
20568;DHT22;10442;49.932;11.592;2023-05-10T11:36:23;22.30;56.00
20568;DHT22;10442;49.932;11.592;2023-05-10T11:38:51;22.10;56.40
20568;DHT22;10442;49.932;11.592;2023-05-10T11:41:19;21.90;57.20
20568;DHT22;10442;49.932;11.592;2023-05-10T11:43:54;21.70;57.50
20568;DHT22;10442;49.932;11.592;2023-05-10T11:46:23;21.40;58.30
20568;DHT22;10442;49.932;11.592;2023-05-10T11:48:59;21.20;59.10
20568;DHT22;10442;49.932;11.592;2023-05-10T11:51:35;21.00;59.50
20568;DHT22;10442;49.932;11.592;2023-05-10T11:54:07;20.90;60.00
20568;DHT22;10442;49.932;11.592;2023-05-10T11:56:40;20.70;60.10
20568;DHT22;10442;49.932;11.592;2023-05-10T11:59:07;20.60;61.10
20568;DHT22;10442;49.932;11.592;2023-05-10T12:01:36;20.50;61.50
20568;DHT22;10442;49.932;11.592;2023-05-10T12:04:03;20.40;61.80
20568;DHT22;10442;49.932;11.592;2023-05-10T12:06:37;20.30;62.10
20568;DHT22;10442;49.932;11.592;2023-05-10T12:09:07;20.30;62.40
20568;DHT22;10442;49.932;11.592;2023-05-10T12:11:39;20.20;62.90
20568;DHT22;10442;49.932;11.592;2023-05-10T12:14:10;20.20;63.10
20568;DHT22;10442;49.932;11.592;2023-05-10T12:16:38;20.20;62.80
20568;DHT22;10442;49.932;11.592;2023-05-10T12:19:05;20.20;63.10
20568;DHT22;10442;49.932;11.592;2023-05-10T12:21:33;20.20;63.50
20568;DHT22;10442;49.932;11.592;2023-05-10T12:24:02;20.20;63.10
20568;DHT22;10442;49.932;11.592;2023-05-10T12:26:31;20.20;63.30
20568;DHT22;10442;49.932;11.592;2023-05-10T12:29:18;20.30;63.00
20568;DHT22;10442;49.932;11.592;2023-05-10T12:31:54;20.30;63.40
20568;DHT22;10442;49.932;11.592;2023-05-10T12:36:54;20.30;63.00
20568;DHT22;10442;49.932;11.592;2023-05-10T12:39:22;20.30;63.10
20568;DHT22;10442;49.932;11.592;2023-05-10T12:41:50;20.40;63.50
20568;DHT22;10442;49.932;11.592;2023-05-10T12:44:17;20.40;63.30
20568;DHT22;10442;49.932;11.592;2023-05-10T12:46:45;20.50;63.20
20568;DHT22;10442;49.932;11.592;2023-05-10T12:49:13;20.50;64.10
20568;DHT22;10442;49.932;11.592;2023-05-10T12:51:40;20.50;63.80
20568;DHT22;10442;49.932;11.592;2023-05-10T12:54:08;20.60;63.20
20568;DHT22;10442;49.932;11.592;2023-05-10T12:56:35;20.50;61.70
20568;DHT22;10442;49.932;11.592;2023-05-10T12:59:04;20.60;62.70
20568;DHT22;10442;49.932;11.592;2023-05-10T13:01:31;20.60;62.50
20568;DHT22;10442;49.932;11.592;2023-05-10T13:03:59;20.60;62.80
20568;DHT22;10442;49.932;11.592;2023-05-10T13:06:27;20.60;63.20
20568;DHT22;10442;49.932;11.592;2023-05-10T13:08:54;20.60;62.70
20568;DHT22;10442;49.932;11.592;2023-05-10T13:11:22;20.60;62.20
20568;DHT22;10442;49.932;11.592;2023-05-10T13:13:50;20.50;62.70
20568;DHT22;10442;49.932;11.592;2023-05-10T13:16:17;20.50;62.20
20568;DHT22;10442;49.932;11.592;2023-05-10T13:18:44;20.40;61.70
20568;DHT22;10442;49.932;11.592;2023-05-10T13:21:12;20.40;61.70
20568;DHT22;10442;49.932;11.592;2023-05-10T13:23:39;20.40;60.90
20568;DHT22;10442;49.932;11.592;2023-05-10T13:26:07;20.40;60.50
20568;DHT22;10442;49.932;11.592;2023-05-10T13:28:34;20.30;60.60
20568;DHT22;10442;49.932;11.592;2023-05-10T13:31:02;20.30;60.40
20568;DHT22;10442;49.932;11.592;2023-05-10T13:33:29;20.30;60.60
20568;DHT22;10442;49.932;11.592;2023-05-10T13:35:57;20.30;60.30
20568;DHT22;10442;49.932;11.592;2023-05-10T13:38:24;20.40;60.80
20568;DHT22;10442;49.932;11.592;2023-05-10T13:40:52;20.50;61.30
20568;DHT22;10442;49.932;11.592;2023-05-10T13:43:20;20.50;60.20
20568;DHT22;10442;49.932;11.592;2023-05-10T13:45:48;20.60;60.20
20568;DHT22;10442;49.932;11.592;2023-05-10T13:48:15;20.70;60.40
20568;DHT22;10442;49.932;11.592;2023-05-10T13:50:43;20.80;60.60
20568;DHT22;10442;49.932;11.592;2023-05-10T13:53:11;20.80;60.60
20568;DHT22;10442;49.932;11.592;2023-05-10T13:55:38;20.80;60.60
20568;DHT22;10442;49.932;11.592;2023-05-10T13:58:06;20.90;60.20
20568;DHT22;10442;49.932;11.592;2023-05-10T14:00:33;21.00;59.00
20568;DHT22;10442;49.932;11.592;2023-05-10T14:03:01;21.00;59.00
20568;DHT22;10442;49.932;11.592;2023-05-10T14:05:28;21.10;59.10
20568;DHT22;10442;49.932;11.592;2023-05-10T14:07:56;21.10;58.70
20568;DHT22;10442;49.932;11.592;2023-05-10T14:10:24;21.20;58.50
20568;DHT22;10442;49.932;11.592;2023-05-10T14:12:52;21.20;58.90
20568;DHT22;10442;49.932;11.592;2023-05-10T14:15:19;21.20;58.00
20568;DHT22;10442;49.932;11.592;2023-05-10T14:17:47;21.20;58.20
20568;DHT22;10442;49.932;11.592;2023-05-10T14:20:15;21.20;57.70
20568;DHT22;10442;49.932;11.592;2023-05-10T14:22:43;21.20;57.50
20568;DHT22;10442;49.932;11.592;2023-05-10T14:25:10;21.30;57.30
20568;DHT22;10442;49.932;11.592;2023-05-10T14:27:38;21.30;57.40
20568;DHT22;10442;49.932;11.592;2023-05-10T14:30:06;21.30;57.40
20568;DHT22;10442;49.932;11.592;2023-05-10T14:32:34;21.40;57.60
20568;DHT22;10442;49.932;11.592;2023-05-10T14:35:04;21.40;57.70
20568;DHT22;10442;49.932;11.592;2023-05-10T14:37:33;21.40;57.30
20568;DHT22;10442;49.932;11.592;2023-05-10T14:40:00;21.40;57.00
20568;DHT22;10442;49.932;11.592;2023-05-10T14:42:27;21.50;57.40
20568;DHT22;10442;49.932;11.592;2023-05-10T14:44:55;21.50;57.40
20568;DHT22;10442;49.932;11.592;2023-05-10T14:47:23;21.50;57.20
20568;DHT22;10442;49.932;11.592;2023-05-10T14:49:51;21.50;56.90
20568;DHT22;10442;49.932;11.592;2023-05-10T14:52:18;21.50;56.50
20568;DHT22;10442;49.932;11.592;2023-05-10T14:54:45;21.50;56.40
20568;DHT22;10442;49.932;11.592;2023-05-10T14:57:13;21.50;56.20
20568;DHT22;10442;49.932;11.592;2023-05-10T14:59:40;21.50;56.60
20568;DHT22;10442;49.932;11.592;2023-05-10T15:02:08;21.50;56.90
20568;DHT22;10442;49.932;11.592;2023-05-10T15:04:37;21.50;57.10
20568;DHT22;10442;49.932;11.592;2023-05-10T15:07:05;21.50;56.70
20568;DHT22;10442;49.932;11.592;2023-05-10T15:09:32;21.50;56.70
20568;DHT22;10442;49.932;11.592;2023-05-10T15:12:00;21.50;56.70
20568;DHT22;10442;49.932;11.592;2023-05-10T15:14:27;21.40;56.50
20568;DHT22;10442;49.932;11.592;2023-05-10T15:16:55;21.40;56.30
20568;DHT22;10442;49.932;11.592;2023-05-10T15:19:22;21.40;57.10
20568;DHT22;10442;49.932;11.592;2023-05-10T15:21:50;21.30;57.50
20568;DHT22;10442;49.932;11.592;2023-05-10T15:24:17;21.20;58.90
20568;DHT22;10442;49.932;11.592;2023-05-10T15:26:45;21.20;59.40
20568;DHT22;10442;49.932;11.592;2023-05-10T15:29:13;21.10;60.10
20568;DHT22;10442;49.932;11.592;2023-05-10T15:31:50;21.00;60.90
20568;DHT22;10442;49.932;11.592;2023-05-10T15:34:18;20.90;62.70
20568;DHT22;10442;49.932;11.592;2023-05-10T15:36:46;20.70;62.60
20568;DHT22;10442;49.932;11.592;2023-05-10T15:39:13;20.60;62.60
20568;DHT22;10442;49.932;11.592;2023-05-10T15:41:41;20.40;63.00
20568;DHT22;10442;49.932;11.592;2023-05-10T15:44:08;20.30;63.50
20568;DHT22;10442;49.932;11.592;2023-05-10T15:46:36;20.10;63.80
20568;DHT22;10442;49.932;11.592;2023-05-10T15:49:05;20.00;63.70
20568;DHT22;10442;49.932;11.592;2023-05-10T15:51:33;19.80;63.90
20568;DHT22;10442;49.932;11.592;2023-05-10T15:54:03;19.70;65.20
20568;DHT22;10442;49.932;11.592;2023-05-10T15:56:35;19.60;64.80
20568;DHT22;10442;49.932;11.592;2023-05-10T15:59:02;19.50;64.00
20568;DHT22;10442;49.932;11.592;2023-05-10T16:01:30;19.40;64.20
20568;DHT22;10442;49.932;11.592;2023-05-10T16:03:59;19.40;64.80
20568;DHT22;10442;49.932;11.592;2023-05-10T16:06:27;19.30;64.90
20568;DHT22;10442;49.932;11.592;2023-05-10T16:08:54;19.20;65.70
20568;DHT22;10442;49.932;11.592;2023-05-10T16:11:22;19.20;66.80
20568;DHT22;10442;49.932;11.592;2023-05-10T16:13:49;19.10;67.40
20568;DHT22;10442;49.932;11.592;2023-05-10T16:16:17;19.10;67.10